In Ko Pah (444) Station Data

Red Flag Warning: No
Fire Weather Zone: 262
SDGE Region: Mountain Empire
Lat/Lon: 32.636/-116.118

Observations

Time Wind Speed/Gust Temp(F) RH Fuel Moist Fuel Temp(F) Dewpt(F) Tmax(F) Tmin(F) Accum Precip 10-min Precip SL Press(mb)
3/29 8:00am 54 11 G 16 62° 14% - - 12° 62.4° 46.3° - - 1017.0
3/29 7:50am 53 10 G 16 62° 14% - - 12° 62.2° 46.3° - - 1017.0
3/29 7:40am 59 10 G 14 62° 14% - - 13° 61.9° 46.3° - - 1017.0
3/29 7:30am 58 11 G 18 61° 14% - - 12° 61.7° 46.3° - - 1017.0
3/29 7:20am 56 10 G 16 60° 14% - - 12° 61.1° 46.3° - - 1017.0
3/29 7:10am 50 9 G 14 60° 15% - - 12° 61.1° 46.3° - - 1017.0
3/29 7:00am 45 8 G 11 60° 15% - - 12° 61.1° 46.3° - - 1017.0
3/29 6:50am 51 9 G 13 60° 14% - - 11° 61.1° 46.3° - - 1017.0
3/29 6:40am 48 8 G 15 60° 14% - - 11° 61.1° 46.3° - - 1016.0
3/29 6:30am 51 7 G 11 60° 14% - - 11° 61.1° 46.3° - - 1016.0
3/29 6:20am 52 9 G 13 60° 14% - - 11° 61.1° 46.3° - - 1016.0
3/29 6:10am 53 10 G 14 60° 14% - - 11° 61.1° 46.3° - - 1016.0
3/29 6:00am 54 10 G 14 60° 14% - - 10° 61.1° 46.3° - - 1016.0
3/29 5:50am 57 11 G 16 60° 14% - - 10° 61.1° 46.3° - - 1016.0
3/29 5:40am 55 10 G 15 61° 14% - - 10° 61.1° 46.3° - - 1016.0
3/29 5:30am 56 10 G 15 60° 14% - - 10° 61° 46.3° - - 1016.0
3/29 5:20am 58 11 G 15 60° 14% - - 10° 61° 46.3° - - 1016.0
3/29 5:10am 56 12 G 16 61° 13% - - 10° 61° 46.3° - - 1016.0
3/29 5:00am 56 13 G 20 61° 13% - - 10° 61° 46.3° - - 1016.0
3/29 4:50am 53 12 G 18 60° 14% - - 10° 60.6° 46.3° - - 1016.0
3/29 4:40am 46 9 G 14 58° 15% - - 10° 60.4° 46.3° - - 1016.0
3/29 4:30am 46 8 G 11 58° 14% - - 10° 60.4° 46.3° - - 1016.0
3/29 4:20am 44 7 G 10 58° 14% - - 10° 60.4° 46.3° - - 1016.0
3/29 4:10am 43 8 G 11 59° 14% - - 10° 60.4° 46.3° - - 1016.0
3/29 4:00am 44 8 G 11 58° 14% - - 10° 60.4° 46.3° - - 1016.0
3/29 3:50am 45 7 G 10 58° 14% - - 10° 60.4° 46.3° - - 1017.0
3/29 3:40am 37 6 G 9 58° 14% - - 10° 60.4° 46.3° - - 1017.0
3/29 3:30am 38 5 G 7 58° 14% - - 10° 60.4° 46.3° - - 1017.0
3/29 3:20am 41 6 G 8 58° 14% - - 10° 60.4° 46.3° - - 1017.0
3/29 3:10am 42 6 G 9 58° 14% - - 10° 60.4° 46.3° - - 1016.0
3/29 3:00am 43 7 G 10 58° 14% - - 10° 60.4° 46.3° - - 1016.0
3/29 2:50am 45 8 G 12 59° 14% - - 10° 60.4° 46.3° - - 1016.0
3/29 2:40am 54 11 G 15 60° 13% - - 10° 60.4° 46.3° - - 1016.0
3/29 2:30am 46 8 G 13 58° 14% - - 10° 59.9° 46.3° - - 1017.0
3/29 2:20am 37 6 G 9 58° 14% - - 10° 59.9° 46.3° - - 1017.0
3/29 2:10am 43 6 G 10 58° 14% - - 10° 59.9° 46.3° - - 1017.0
3/29 2:00am 47 7 G 14 59° 14% - - 10° 59.9° 46.3° - - 1017.0
3/29 1:50am 46 7 G 10 59° 14% - - 59.3° 46.3° - - 1017.0
3/29 1:40am 48 7 G 11 59° 14% - - 10° 59.3° 46.3° - - 1017.0
3/29 1:30am 46 7 G 14 58° 14% - - 10° 58.8° 46.3° - - 1017.0
3/29 1:20am 49 6 G 10 58° 15% - - 11° 58.5° 46.3° - - 1017.0
3/29 1:10am 48 4 G 8 53° 29% - - 18° 57.9° 46.3° - - 1018.0
3/29 1:00am 242 2 G 4 47° 67% - - 36° 48.5° 46.3° - - 1020.0
3/29 12:50am 253 2 G 4 47° 66% - - 36° 48.5° 46.7° - - 1020.0
3/29 12:40am 240 2 G 3 47° 66% - - 37° 48.5° 47.1° - - 1020.0
3/29 12:30am 240 2 G 3 48° 66% - - 37° 48.5° 47.3° - - 1020.0
3/29 12:20am 231 2 G 3 48° 66% - - 37° 48.5° 47.3° - - 1020.0
3/29 12:10am 228 3 G 5 48° 66% - - 37° 48.5° 47.3° - - 1019.0
3/29 12:00am 228 3 G 5 48° 65% - - 37° 67.9° 40.1° - - 1019.0
3/28 11:50pm 242 3 G 5 49° 63% - - 37° 67.9° 40.1° - - 1019.0
3/28 11:40pm 223 4 G 5 50° 62% - - 38° 67.9° 40.1° - - 1019.0
3/28 11:30pm 239 2 G 4 50° 63% - - 37° 67.9° 40.1° - - 1019.0
3/28 11:20pm 241 3 G 4 50° 63% - - 38° 67.9° 40.1° - - 1019.0
3/28 11:10pm 226 3 G 5 51° 59% - - 37° 67.9° 40.1° - - 1019.0
3/28 11:00pm 222 1 G 4 52° 57% - - 38° 67.9° 40.1° - - 1018.0
3/28 10:50pm 89 1 G 2 52° 58% - - 38° 67.9° 40.1° - - 1018.0
3/28 10:40pm 41 0 G 2 53° 56% - - 37° 67.9° 40.1° - - 1018.0
3/28 10:30pm 93 1 G 3 53° 55% - - 38° 67.9° 40.1° - - 1018.0
3/28 10:20pm 101 1 G 3 53° 56% - - 37° 67.9° 40.1° - - 1018.0
3/28 10:10pm 152 0 G 1 52° 55% - - 37° 67.9° 40.1° - - 1018.0
3/28 10:00pm 200 1 G 1 52° 55% - - 37° 67.9° 40.1° - - 1018.0
3/28 9:50pm 209 2 G 3 53° 54% - - 37° 67.9° 40.1° - - 1018.0
3/28 9:40pm 228 1 G 3 53° 52% - - 36° 67.9° 40.1° - - 1018.0
3/28 9:30pm 220 1 G 3 54° 49% - - 35° 67.9° 40.1° - - 1018.0
3/28 9:20pm 210 1 G 4 55° 48% - - 35° 67.9° 40.1° - - 1017.0
3/28 9:10pm 235 1 G 2 54° 46% - - 34° 67.9° 40.1° - - 1017.0
3/28 9:00pm 219 1 G 5 55° 46% - - 34° 67.9° 40.1° - - 1017.0
3/28 8:50pm 230 2 G 3 54° 44% - - 33° 67.9° 40.1° - - 1017.0
3/28 8:40pm 229 3 G 4 55° 42% - - 33° 67.9° 40.1° - - 1016.0
3/28 8:30pm 209 4 G 6 57° 40% - - 33° 67.9° 40.1° - - 1016.0
3/28 8:20pm 185 4 G 7 58° 36% - - 31° 67.9° 40.1° - - 1016.0
3/28 8:10pm 152 2 G 4 59° 14% - - 10° 67.9° 40.1° - - 1015.0
3/28 8:00pm 160 1 G 2 59° 14% - - 10° 67.9° 40.1° - - 1015.0
3/28 7:50pm 132 0 G 1 58° 15% - - 10° 67.9° 40.1° - - 1015.0
3/28 7:40pm 40 1 G 3 59° 15% - - 11° 67.9° 40.1° - - 1015.0
3/28 7:30pm 89 1 G 2 60° 14% - - 10° 67.9° 40.1° - - 1014.0
3/28 7:20pm 89 1 G 2 60° 14% - - 10° 67.9° 40.1° - - 1014.0
3/28 7:10pm 91 3 G 4 61° 13% - - 11° 67.9° 40.1° - - 1014.0
3/28 7:00pm 68 4 G 6 63° 12% - - 10° 67.9° 40.1° - - 1014.0
3/28 6:50pm 51 5 G 7 64° 12% - - 10° 67.9° 40.1° - - 1013.0
3/28 6:40pm 52 5 G 8 64° 12% - - 10° 67.9° 40.1° - - 1013.0
3/28 6:30pm 46 6 G 10 64° 11% - - 67.9° 40.1° - - 1013.0
3/28 6:20pm 51 6 G 9 65° 11% - - 67.9° 40.1° - - 1013.0
3/28 6:10pm 40 5 G 7 65° 11% - - 67.9° 40.1° - - 1013.0
3/28 6:00pm 46 5 G 9 65° 11% - - 67.9° 40.1° - - 1013.0
3/28 5:50pm 41 6 G 10 65° 11% - - 67.9° 40.1° - - 1013.0
3/28 5:40pm 57 7 G 10 65° 11% - - 67.9° 40.1° - - 1013.0
3/28 5:30pm 50 6 G 10 65° 11% - - 67.9° 40.1° - - 1013.0
3/28 5:20pm 39 6 G 9 66° 10% - - 67.9° 40.1° - - 1013.0
3/28 5:10pm 49 8 G 10 66° 10% - - 67.9° 40.1° - - 1012.0
3/28 5:00pm 45 6 G 9 66° 10% - - 67.9° 40.1° - - 1012.0
3/28 4:50pm 41 6 G 10 66° 10% - - 67.9° 40.1° - - 1012.0
3/28 4:40pm 79 2 G 6 67° 10% - - 67.9° 40.1° - - 1012.0
3/28 4:30pm 50 6 G 11 65° 10% - - 67.2° 40.1° - - 1012.0
3/28 4:20pm 60 6 G 11 66° 10% - - 67.2° 40.1° - - 1012.0
3/28 4:10pm 62 5 G 10 66° 11% - - 67.2° 40.1° - - 1012.0
3/28 4:00pm 71 5 G 10 66° 11% - - 66.6° 40.1° - - 1013.0
3/28 3:50pm 43 7 G 11 65° 11% - - 66.6° 40.1° - - 1013.0
3/28 3:40pm 56 8 G 13 66° 11% - - 66.6° 40.1° - - 1013.0
3/28 3:30pm 61 5 G 13 66° 11% - - 10° 66.6° 40.1° - - 1013.0
3/28 3:20pm 75 7 G 12 65° 11% - - 10° 65.9° 40.1° - - 1013.0
3/28 3:10pm 46 6 G 12 66° 11% - - 65.9° 40.1° - - 1013.0
3/28 3:00pm 50 6 G 12 65° 11% - - 65.4° 40.1° - - 1014.0
3/28 2:50pm 72 8 G 16 64° 12% - - 10° 65.4° 40.1° - - 1014.0
3/28 2:40pm 52 8 G 14 65° 12% - - 10° 65.4° 40.1° - - 1014.0
3/28 2:30pm 53 7 G 13 64° 11% - - 65.4° 40.1° - - 1014.0
3/28 2:20pm 57 10 G 16 64° 11% - - 64.9° 40.1° - - 1014.0
3/28 2:10pm 49 10 G 17 64° 12% - - 10° 64.8° 40.1° - - 1014.0
3/28 2:00pm 38 9 G 15 64° 12% - - 10° 64.7° 40.1° - - 1014.0
3/28 1:50pm 56 9 G 16 63° 12% - - 10° 64.3° 40.1° - - 1015.0
3/28 1:40pm 50 9 G 18 63° 13% - - 10° 63.5° 40.1° - - 1015.0
3/28 1:30pm 46 9 G 17 62° 13% - - 11° 63.5° 40.1° - - 1015.0
3/28 1:20pm 42 10 G 16 62° 13% - - 10° 63.5° 40.1° - - 1015.0
3/28 1:10pm 38 9 G 18 63° 12% - - 10° 63.5° 40.1° - - 1015.0
3/28 1:00pm 47 8 G 15 62° 12% - - 10° 62.8° 40.1° - - 1015.0
3/28 12:50pm 53 8 G 14 62° 12% - - 62.6° 40.1° - - 1015.0
3/28 12:40pm 52 9 G 15 62° 13% - - 11° 62.1° 40.1° - - 1015.0
3/28 12:30pm 56 8 G 14 61° 14% - - 12° 61.8° 40.1° - - 1016.0
3/28 12:20pm 54 9 G 16 61° 14% - - 12° 61.7° 40.1° - - 1016.0
3/28 12:10pm 56 8 G 15 61° 14% - - 11° 61.5° 40.1° - - 1016.0
3/28 12:00pm 52 7 G 12 60° 14% - - 11° 60.5° 40.1° - - 1016.0
3/28 11:50am 45 8 G 15 59° 15% - - 12° 60.4° 40.1° - - 1016.0
3/28 11:40am 51 7 G 14 59° 16% - - 12° 60.4° 40.1° - - 1017.0
3/28 11:30am 69 8 G 16 60° 16% - - 13° 60.4° 40.1° - - 1016.0
3/28 11:20am 51 8 G 13 59° 16% - - 13° 59.8° 40.1° - - 1017.0
3/28 11:10am 54 7 G 14 59° 16% - - 13° 59.6° 40.1° - - 1017.0
3/28 11:00am 47 8 G 12 59° 16% - - 13° 59.6° 40.1° - - 1017.0
3/28 10:50am 54 8 G 16 58° 17% - - 13° 58.8° 40.1° - - 1017.0
3/28 10:40am 60 10 G 14 58° 17% - - 13° 58.5° 40.1° - - 1017.0
3/28 10:30am 61 10 G 15 58° 17% - - 13° 58.3° 40.1° - - 1017.0
3/28 10:20am 50 9 G 16 58° 18% - - 14° 58.3° 40.1° - - 1017.0
3/28 10:10am 55 10 G 16 57° 19% - - 15° 57.2° 40.1° - - 1017.0
3/28 10:00am 58 10 G 15 56° 20% - - 15° 57.1° 40.1° - - 1017.0
3/28 9:50am 61 10 G 14 57° 20% - - 16° 56.8° 40.1° - - 1017.0
3/28 9:40am 59 11 G 18 56° 20% - - 16° 56.2° 40.1° - - 1017.0
3/28 9:30am 56 11 G 17 56° 21% - - 16° 56.1° 40.1° - - 1017.0
3/28 9:20am 41 10 G 18 56° 21% - - 16° 56.1° 40.1° - - 1017.0
3/28 9:10am 45 11 G 19 55° 21% - - 16° 55.6° 40.1° - - 1017.0
3/28 9:00am 49 12 G 18 55° 22% - - 16° 55.2° 40.1° - - 1017.0
3/28 8:50am 58 13 G 20 54° 22% - - 16° 54.7° 40.1° - - 1017.0
3/28 8:40am 44 10 G 16 54° 23% - - 17° 54.7° 40.1° - - 1017.0
3/28 8:30am 57 11 G 16 54° 23% - - 17° 54.3° 40.1° - - 1017.0
3/28 8:20am 58 10 G 16 54° 23% - - 17° 54.1° 40.1° - - 1017.0
3/28 8:10am 52 9 G 17 54° 23% - - 17° 54° 40.1° - - 1017.0
3/28 8:00am 57 10 G 15 53° 24% - - 17° 53.6° 40.1° - - 1016.0
3/28 7:50am 54 8 G 13 53° 25% - - 18° 53.3° 40.1° - - 1017.0
3/28 7:40am 29 2 G 8 49° 36% - - 23° 51.3° 40.1° - - 1017.0
3/28 7:30am 214 2 G 3 46° 42% - - 24° 47.2° 40.1° - - 1018.0
3/28 7:20am 236 1 G 2 45° 46% - - 26° 46.9° 40.1° - - 1018.0
3/28 7:10am 173 1 G 2 45° 47% - - 26° 46.9° 40.1° - - 1018.0
3/28 7:00am 97 1 G 3 43° 59% - - 29° 46.9° 40.1° - - 1018.0
3/28 6:50am 47 1 G 2 41° 77% - - 34° 46.9° 40.1° - - 1019.0
3/28 6:40am 249 1 G 2 41° 81% - - 35° 46.9° 40.1° - - 1019.0
3/28 6:30am 259 2 G 3 41° 78% - - 34° 46.9° 40.1° - - 1019.0
3/28 6:20am 238 3 G 4 41° 70% - - 32° 46.9° 40.1° - - 1019.0
3/28 6:10am 2 0 G 2 42° 63% - - 30° 46.9° 40.1° - - 1018.0
3/28 6:00am 231 2 G 5 45° 49% - - 26° 46.9° 40.1° - - 1018.0